Terminal Aerodrome Forecast
Issued by NWS

Home | Current Version | Previous Version | Graphics & Text | Print | Product List | Glossary On
Versions: 1 2 3 4 5 6 7 8 9 10 11 12 13 14 15 16 17 18 19 20 21
000
FTUS43 KGRB 220329 AAA
TAFCWA
TAF AMD
KCWA 220329Z 2203/2224 12007KT 6SM SHRA SCT007 OVC035
      TEMPO 2203/2207 2SM TSRA OVC007CB
     FM220700 13004KT 3SM SHRA VCTS OVC008CB
     FM221000 11004KT 2SM SHRA VCTS OVC007CB
     FM221400 08005KT 6SM BR VCSH OVC015
     FM222000 08004KT 6SM -SHRA VCTS OVC020CB=

USA.gov is the U.S. government's official web portal to all federal, state and local government web resources and services.